Time;durP1;ratioP1;P1;durP2;ratioP2;P2;SDS_P1;SDS_P2;PMS_P1;PMS_P2;Temp;Humidity;BMP_temperature;BMP_pressure;BME280_temperature;BME280_humidity;BME280_pressure;Samples;Min_cycle;Max_cycle;Signal;HPM_P1;HPM_P2
2021/12/30 00:01:16;;;;;;;63.63;8.40;;;8.90;99.90;;;;;;4777241;29;20058;-85
2021/12/30 00:03:43;;;;;;;58.67;8.52;;;8.90;99.90;;;;;;4790922;29;20047;-86
2021/12/30 00:06:10;;;;;;;62.90;8.55;;;8.80;99.90;;;;;;4761875;29;20507;-83
2021/12/30 00:08:36;;;;;;;65.28;9.10;;;8.80;99.90;;;;;;4794897;29;20046;-85
2021/12/30 00:11:03;;;;;;;61.83;9.52;;;8.90;99.90;;;;;;4770324;29;20054;-85
2021/12/30 00:13:29;;;;;;;71.40;9.93;;;8.80;99.90;;;;;;4767197;29;20260;-85
2021/12/30 00:15:55;;;;;;;61.60;8.38;;;8.90;99.90;;;;;;4753917;29;20130;-87
2021/12/30 00:18:21;;;;;;;75.32;9.27;;;8.90;99.90;;;;;;4755913;29;20047;-85
2021/12/30 00:20:47;;;;;;;73.50;8.88;;;8.80;99.90;;;;;;4770083;29;20043;-88
2021/12/30 00:23:13;;;;;;;66.40;8.95;;;8.80;99.90;;;;;;4781745;29;20126;-86
2021/12/30 00:25:41;;;;;;;83.95;9.52;;;8.80;99.90;;;;;;4779582;29;20483;-86
2021/12/30 00:28:16;;;;;;;67.95;8.18;;;8.80;99.90;;;;;;4776522;29;20097;-87
2021/12/30 00:30:43;;;;;;;69.30;9.57;;;8.80;99.90;;;;;;4783101;29;20050;-85
2021/12/30 00:33:10;;;;;;;61.65;8.77;;;8.70;99.90;;;;;;4762392;29;20487;-84
2021/12/30 00:35:36;;;;;;;73.20;7.88;;;8.70;99.90;;;;;;4796976;29;20134;-84
2021/12/30 00:38:03;;;;;;;80.85;9.23;;;8.70;99.90;;;;;;4768363;29;20513;-86
2021/12/30 00:40:30;;;;;;;70.30;8.77;;;8.70;99.90;;;;;;4776189;29;20061;-85
2021/12/30 00:42:56;;;;;;;76.35;8.70;;;8.70;99.90;;;;;;4781803;29;20038;-84
2021/12/30 00:45:22;;;;;;;59.13;7.18;;;8.70;99.90;;;;;;4766106;29;20043;-84
2021/12/30 00:47:48;;;;;;;72.10;9.63;;;8.70;99.90;;;;;;4760664;29;20035;-88
2021/12/30 00:50:14;;;;;;;68.30;7.45;;;8.60;99.90;;;;;;4750184;29;20057;-84
2021/12/30 00:52:39;;;;;;;66.10;8.38;;;8.60;99.90;;;;;;4760205;29;20519;-84
2021/12/30 00:55:06;;;;;;;67.72;7.93;;;8.60;99.90;;;;;;4757274;29;20081;-88
2021/12/30 00:57:32;;;;;;;73.57;8.65;;;8.60;99.90;;;;;;4758064;29;20107;-86
2021/12/30 00:59:58;;;;;;;61.95;7.05;;;8.60;99.90;;;;;;4749696;29;20130;-85
2021/12/30 01:02:24;;;;;;;74.68;8.57;;;8.50;99.90;;;;;;4745238;29;20059;-87
2021/12/30 01:04:49;;;;;;;63.97;7.95;;;8.50;99.90;;;;;;4762975;29;20067;-86
2021/12/30 01:07:15;;;;;;;74.78;8.88;;;8.50;99.90;;;;;;4761019;29;20064;-85
2021/12/30 01:09:41;;;;;;;75.57;8.43;;;8.50;99.90;;;;;;4763353;29;20554;-84
2021/12/30 01:12:07;;;;;;;74.45;8.63;;;8.50;99.90;;;;;;4759325;29;20081;-84
2021/12/30 01:14:36;;;;;;;71.80;8.27;;;8.50;99.90;;;;;;4760594;29;20701;-87
2021/12/30 01:17:15;;;;;;;69.07;8.48;;;8.50;99.90;;;;;;4775735;29;20126;-87
2021/12/30 01:19:44;;;;;;;64.22;8.60;;;8.50;99.90;;;;;;4776566;29;20039;-85
2021/12/30 01:22:12;;;;;;;62.05;7.43;;;8.50;99.90;;;;;;4755430;29;20126;-83
2021/12/30 01:24:38;;;;;;;71.68;8.10;;;8.50;99.90;;;;;;4771557;29;20089;-88
2021/12/30 01:27:04;;;;;;;67.43;8.63;;;8.40;99.90;;;;;;4773465;29;20046;-88
2021/12/30 01:29:31;;;;;;;70.43;8.27;;;8.40;99.90;;;;;;4773893;29;20050;-84
2021/12/30 01:31:57;;;;;;;54.33;7.43;;;8.40;99.90;;;;;;4760482;29;20108;-83
2021/12/30 01:34:23;;;;;;;69.63;8.25;;;8.40;99.90;;;;;;4753777;29;20093;-84
2021/12/30 01:36:49;;;;;;;67.65;7.50;;;8.40;99.90;;;;;;4745206;29;20066;-84
2021/12/30 01:39:17;;;;;;;58.38;7.20;;;8.40;99.90;;;;;;4774943;29;20036;-83
2021/12/30 01:41:44;;;;;;;60.20;7.18;;;8.40;99.90;;;;;;4790845;29;20049;-84
2021/12/30 01:44:10;;;;;;;66.10;8.82;;;8.40;99.90;;;;;;4755105;29;20311;-86
2021/12/30 01:46:42;;;;;;;48.22;6.93;;;8.40;99.90;;;;;;4758730;29;20043;-86
2021/12/30 01:49:09;;;;;;;64.28;7.30;;;8.40;99.90;;;;;;4771873;29;20054;-87
2021/12/30 01:51:36;;;;;;;61.22;7.32;;;8.40;99.90;;;;;;4771062;29;20130;-86
2021/12/30 01:54:02;;;;;;;60.55;7.55;;;8.40;99.90;;;;;;4774375;29;20039;-83
2021/12/30 01:56:28;;;;;;;57.10;7.32;;;8.40;99.90;;;;;;4759217;29;20490;-87
2021/12/30 01:58:55;;;;;;;56.70;7.68;;;8.40;99.90;;;;;;4761689;29;20039;-87
2021/12/30 02:01:22;;;;;;;59.83;7.78;;;8.50;99.90;;;;;;4769091;29;20047;-85
2021/12/30 02:03:48;;;;;;;48.70;7.25;;;8.40;99.90;;;;;;4759430;29;20697;-86
2021/12/30 02:06:14;;;;;;;51.42;6.60;;;8.40;99.90;;;;;;4759142;29;20099;-86
2021/12/30 02:08:39;;;;;;;55.20;7.55;;;8.50;99.90;;;;;;4777378;29;20051;-88
2021/12/30 02:11:05;;;;;;;64.38;7.40;;;8.50;99.90;;;;;;4773333;29;20074;-86
2021/12/30 02:13:31;;;;;;;53.75;7.97;;;8.40;99.90;;;;;;4759474;29;20039;-85
2021/12/30 02:16:01;;;;;;;69.10;8.35;;;8.40;99.90;;;;;;4762099;29;20039;-88
2021/12/30 02:18:27;;;;;;;65.15;7.72;;;8.40;99.90;;;;;;4762099;29;20129;-83
2021/12/30 02:20:59;;;;;;;68.65;7.68;;;8.40;99.90;;;;;;4773891;29;20491;-86
2021/12/30 02:23:28;;;;;;;52.53;7.38;;;8.40;99.90;;;;;;4772761;29;20054;-86
2021/12/30 02:25:57;;;;;;;65.45;7.85;;;8.30;99.90;;;;;;4775148;29;20042;-85
2021/12/30 02:28:25;;;;;;;60.58;8.23;;;8.30;99.90;;;;;;4770681;29;20094;-86
2021/12/30 02:30:53;;;;;;;70.38;9.50;;;8.30;99.90;;;;;;4772297;29;20126;-86
2021/12/30 02:33:19;;;;;;;60.55;8.90;;;8.30;99.90;;;;;;4773116;29;20055;-86
2021/12/30 02:35:45;;;;;;;72.22;10.45;;;8.30;99.90;;;;;;4778258;29;20050;-86
2021/12/30 02:38:12;;;;;;;71.13;11.18;;;8.30;99.90;;;;;;4776318;29;20043;-85
2021/12/30 02:40:50;;;;;;;74.03;14.32;;;8.40;99.90;;;;;;4745124;29;20151;-83
2021/12/30 02:43:22;;;;;;;83.20;16.73;;;8.40;99.90;;;;;;4768982;29;20039;-83
2021/12/30 02:45:48;;;;;;;95.43;16.75;;;8.50;99.90;;;;;;4787255;29;20173;-86
2021/12/30 02:48:21;;;;;;;99.55;20.58;;;8.60;99.90;;;;;;4758590;29;20062;-86
2021/12/30 02:50:49;;;;;;;108.40;21.75;;;8.70;99.90;;;;;;4775842;29;20096;-86
2021/12/30 02:53:15;;;;;;;108.20;22.38;;;8.80;99.90;;;;;;4759548;29;20043;-84
2021/12/30 02:55:42;;;;;;;104.47;24.23;;;8.80;99.90;;;;;;4758404;29;20105;-85
2021/12/30 02:58:08;;;;;;;126.35;24.15;;;8.90;99.90;;;;;;4772266;29;20481;-84
2021/12/30 03:00:35;;;;;;;114.05;26.17;;;8.90;99.90;;;;;;4776283;29;20326;-83
2021/12/30 03:03:00;;;;;;;119.63;25.27;;;9.00;99.90;;;;;;4765985;29;20080;-88
2021/12/30 03:05:27;;;;;;;127.30;26.90;;;9.00;99.90;;;;;;4762635;29;20042;-82
2021/12/30 03:07:54;;;;;;;116.78;26.20;;;9.10;99.90;;;;;;4770462;29;20139;-85
2021/12/30 03:10:24;;;;;;;111.55;26.10;;;9.10;99.90;;;;;;4770417;29;20073;-83
2021/12/30 03:12:55;;;;;;;124.85;26.58;;;9.20;99.90;;;;;;4769865;29;20041;-86
2021/12/30 03:15:22;;;;;;;115.18;25.42;;;9.20;99.90;;;;;;4773529;29;20065;-83
2021/12/30 03:17:48;;;;;;;106.55;25.83;;;9.30;99.90;;;;;;4774729;29;20436;-83
2021/12/30 03:20:13;;;;;;;117.97;26.27;;;9.30;99.90;;;;;;4758127;29;20311;-82
2021/12/30 03:22:40;;;;;;;117.68;26.52;;;9.30;99.90;;;;;;4760325;29;20039;-87
2021/12/30 03:25:08;;;;;;;97.25;25.48;;;9.40;99.90;;;;;;4759012;29;20055;-84
2021/12/30 03:27:34;;;;;;;116.30;26.27;;;9.40;99.90;;;;;;4784027;29;20051;-87
2021/12/30 03:30:02;;;;;;;111.90;24.95;;;9.40;99.90;;;;;;4745895;29;20205;-86
2021/12/30 03:32:28;;;;;;;92.13;24.42;;;9.40;99.90;;;;;;4773529;29;20054;-89
2021/12/30 03:34:53;;;;;;;108.97;24.52;;;9.50;99.90;;;;;;4772694;29;20047;-85
2021/12/30 03:37:19;;;;;;;98.57;24.13;;;9.50;99.90;;;;;;4757600;29;20047;-87
2021/12/30 03:39:47;;;;;;;103.43;24.05;;;9.60;99.90;;;;;;4739873;29;20035;-89
2021/12/30 03:42:13;;;;;;;104.82;24.65;;;9.60;99.90;;;;;;4745501;29;20546;-86
2021/12/30 03:44:39;;;;;;;95.80;23.67;;;9.60;99.90;;;;;;4772223;29;20047;-86
2021/12/30 03:47:06;;;;;;;111.60;23.90;;;9.60;99.90;;;;;;4758812;29;20175;-85
2021/12/30 03:49:32;;;;;;;93.57;24.13;;;9.60;99.90;;;;;;4771516;29;20046;-85
2021/12/30 03:51:58;;;;;;;88.32;24.02;;;9.70;99.90;;;;;;4760261;29;20175;-85
2021/12/30 03:54:24;;;;;;;99.50;23.23;;;9.70;99.90;;;;;;4762976;29;20054;-87
2021/12/30 03:56:49;;;;;;;104.05;23.90;;;9.70;99.90;;;;;;4759944;29;20070;-85
2021/12/30 03:59:15;;;;;;;108.03;23.95;;;9.80;99.90;;;;;;4755410;29;20137;-83
2021/12/30 04:01:41;;;;;;;103.65;24.42;;;9.80;99.90;;;;;;4755063;29;20116;-83
2021/12/30 04:04:07;;;;;;;93.60;24.40;;;9.80;99.90;;;;;;4742608;29;20067;-87
2021/12/30 04:06:33;;;;;;;93.90;23.45;;;9.80;99.90;;;;;;4745752;29;20452;-88
2021/12/30 04:08:59;;;;;;;92.65;24.05;;;9.80;99.90;;;;;;4772911;29;20138;-88
2021/12/30 04:11:26;;;;;;;102.07;23.65;;;9.80;99.90;;;;;;4774113;29;20406;-83
2021/12/30 04:13:53;;;;;;;101.15;25.02;;;9.80;99.90;;;;;;4763404;29;20055;-85
2021/12/30 04:16:20;;;;;;;99.50;23.80;;;9.80;99.90;;;;;;4750751;29;20122;-88
2021/12/30 04:18:48;;;;;;;92.88;23.58;;;9.80;99.90;;;;;;4770926;29;20074;-83
2021/12/30 04:21:17;;;;;;;93.75;23.92;;;9.80;99.90;;;;;;4762294;29;20039;-84
2021/12/30 04:23:43;;;;;;;90.85;23.67;;;9.80;99.90;;;;;;4771404;29;20055;-84
2021/12/30 04:26:09;;;;;;;97.53;23.95;;;9.80;99.90;;;;;;4777248;29;20099;-86
2021/12/30 04:28:35;;;;;;;111.70;24.67;;;9.80;99.90;;;;;;4758473;29;20482;-83
2021/12/30 04:31:01;;;;;;;107.75;23.58;;;9.90;99.90;;;;;;4776573;29;20496;-85
2021/12/30 04:33:26;;;;;;;88.63;24.25;;;9.90;99.90;;;;;;4757338;29;20039;-86
2021/12/30 04:35:56;;;;;;;94.57;23.85;;;9.90;99.90;;;;;;4741479;29;20569;-84
2021/12/30 04:38:26;;;;;;;98.15;24.08;;;9.90;99.90;;;;;;4757750;29;20133;-83
2021/12/30 04:40:53;;;;;;;96.50;23.30;;;10.00;99.90;;;;;;4755455;29;20108;-82
2021/12/30 04:43:19;;;;;;;90.85;23.63;;;10.00;99.90;;;;;;4771680;29;20270;-84
2021/12/30 04:45:46;;;;;;;95.53;23.13;;;10.00;99.90;;;;;;4773838;29;20047;-87
2021/12/30 04:48:13;;;;;;;90.70;22.30;;;10.10;99.90;;;;;;4767477;29;20100;-85
2021/12/30 04:50:39;;;;;;;105.72;24.17;;;10.20;99.90;;;;;;4758227;29;20040;-83
2021/12/30 04:53:06;;;;;;;92.82;23.58;;;10.20;99.90;;;;;;4776039;29;20315;-86
2021/12/30 04:55:32;;;;;;;101.40;23.50;;;10.20;99.90;;;;;;4758260;29;20041;-86
2021/12/30 04:57:57;;;;;;;94.63;23.50;;;10.30;99.90;;;;;;4758606;29;20043;-85
2021/12/30 05:00:23;;;;;;;104.78;25.40;;;10.30;99.90;;;;;;4770244;29;20054;-87
2021/12/30 05:05:50;;;;;;;99.80;24.88;;;10.30;99.90;;;;;;4782289;29;20575;-87
2021/12/30 05:08:18;;;;;;;116.82;25.33;;;10.30;99.90;;;;;;4769564;29;20057;-85
2021/12/30 05:10:45;;;;;;;108.85;25.85;;;10.40;99.90;;;;;;4773262;29;20188;-89
2021/12/30 05:13:11;;;;;;;114.43;25.08;;;10.40;99.90;;;;;;4770279;29;20061;-86
2021/12/30 05:15:39;;;;;;;100.15;24.38;;;10.40;99.90;;;;;;4777551;29;20042;-88
2021/12/30 05:18:08;;;;;;;116.07;26.45;;;10.40;99.90;;;;;;4760555;29;20510;-84
2021/12/30 05:20:34;;;;;;;123.38;26.50;;;10.50;99.90;;;;;;4777603;29;20130;-85
2021/12/30 05:23:00;;;;;;;99.00;26.60;;;10.50;99.90;;;;;;4777134;29;20031;-86
2021/12/30 05:25:27;;;;;;;135.05;29.55;;;10.50;99.90;;;;;;4763719;29;20074;-83
2021/12/30 05:27:52;;;;;;;108.47;29.35;;;10.50;99.90;;;;;;4763074;29;20362;-82
2021/12/30 05:30:21;;;;;;;113.60;29.80;;;10.50;99.90;;;;;;4761894;29;20095;-87
2021/12/30 05:32:48;;;;;;;102.22;25.42;;;10.60;99.90;;;;;;4769754;29;20070;-84
2021/12/30 05:35:14;;;;;;;127.60;30.98;;;10.60;99.90;;;;;;4759177;29;20166;-88
2021/12/30 05:37:41;;;;;;;118.57;29.85;;;10.60;99.90;;;;;;4774672;29;20129;-83
2021/12/30 05:40:09;;;;;;;115.45;28.85;;;10.60;99.90;;;;;;4778465;29;20449;-87
2021/12/30 05:42:35;;;;;;;103.95;28.27;;;10.70;99.90;;;;;;4762231;29;20506;-86
2021/12/30 05:45:02;;;;;;;132.32;30.00;;;10.70;99.90;;;;;;4788468;29;20055;-85
2021/12/30 05:47:28;;;;;;;85.57;27.00;;;10.70;99.90;;;;;;4771480;29;20074;-84
2021/12/30 05:49:54;;;;;;;106.15;27.77;;;10.70;99.90;;;;;;4760044;29;20074;-86
2021/12/30 05:52:20;;;;;;;97.78;27.52;;;10.80;99.90;;;;;;4750305;29;20890;-85
2021/12/30 05:54:45;;;;;;;87.45;26.08;;;10.80;99.90;;;;;;4777799;29;20111;-87
2021/12/30 05:57:11;;;;;;;103.93;27.35;;;10.80;99.90;;;;;;4745673;29;20530;-86
2021/12/30 05:59:38;;;;;;;120.95;29.00;;;10.80;99.90;;;;;;4761955;29;20099;-84
2021/12/30 06:02:04;;;;;;;93.70;25.13;;;10.80;99.90;;;;;;4753093;29;20175;-87
2021/12/30 06:04:29;;;;;;;102.40;26.40;;;10.90;99.90;;;;;;4759508;29;20130;-84
2021/12/30 06:06:55;;;;;;;82.38;24.00;;;10.90;99.90;;;;;;4755483;29;20043;-82
2021/12/30 06:09:24;;;;;;;104.47;25.15;;;10.90;99.90;;;;;;4753714;29;20047;-83
2021/12/30 06:11:50;;;;;;;79.28;24.10;;;10.90;99.90;;;;;;4762818;29;20111;-83
2021/12/30 06:14:16;;;;;;;86.00;23.88;;;10.90;99.90;;;;;;4761116;29;20047;-83
2021/12/30 06:16:42;;;;;;;90.40;24.17;;;10.90;99.90;;;;;;4740644;29;20496;-85
2021/12/30 06:19:07;;;;;;;96.22;25.50;;;10.90;99.90;;;;;;4741277;29;20055;-83
2021/12/30 06:21:36;;;;;;;108.50;27.17;;;11.00;99.90;;;;;;4754267;29;20116;-86
2021/12/30 06:24:05;;;;;;;97.30;25.48;;;11.00;99.90;;;;;;4754415;29;20051;-86
2021/12/30 06:26:31;;;;;;;104.65;25.90;;;11.00;99.90;;;;;;4756724;29;20079;-86
2021/12/30 06:28:57;;;;;;;110.03;27.38;;;11.00;99.90;;;;;;4741933;29;20418;-85
2021/12/30 06:31:22;;;;;;;150.85;30.92;;;11.00;99.90;;;;;;4757954;29;20076;-83
2021/12/30 06:33:48;;;;;;;126.20;29.23;;;11.00;99.90;;;;;;4739661;29;21845;-86
2021/12/30 06:36:14;;;;;;;152.40;32.30;;;11.00;99.90;;;;;;4756884;29;20130;-83
2021/12/30 06:38:40;;;;;;;156.70;32.25;;;11.00;99.90;;;;;;4765515;29;20043;-83
2021/12/30 06:41:09;;;;;;;177.32;33.97;;;11.10;99.90;;;;;;4784064;29;20047;-86
2021/12/30 06:43:34;;;;;;;178.93;32.65;;;11.10;99.90;;;;;;4745298;29;20045;-83
2021/12/30 06:46:04;;;;;;;196.50;33.03;;;11.10;99.90;;;;;;4772023;29;20050;-87
2021/12/30 06:48:30;;;;;;;171.77;33.08;;;11.10;99.90;;;;;;4782912;29;20054;-84
2021/12/30 06:50:56;;;;;;;126.15;29.05;;;11.20;99.90;;;;;;4745710;29;20051;-84
2021/12/30 06:53:24;;;;;;;136.38;30.88;;;11.20;99.90;;;;;;4787270;29;20542;-83
2021/12/30 06:55:51;;;;;;;146.68;30.10;;;11.30;99.90;;;;;;4769462;29;20057;-85
2021/12/30 06:58:19;;;;;;;127.80;28.00;;;11.30;99.90;;;;;;4757248;29;20491;-86
2021/12/30 07:00:47;;;;;;;168.85;31.00;;;11.40;99.90;;;;;;4774508;29;20035;-86
2021/12/30 07:03:13;;;;;;;128.60;30.52;;;11.40;99.90;;;;;;4777309;29;20046;-86
2021/12/30 07:05:39;;;;;;;176.63;31.27;;;11.50;99.90;;;;;;4772525;29;20064;-86
2021/12/30 07:08:05;;;;;;;129.75;27.92;;;11.50;99.90;;;;;;4785012;29;20104;-86
2021/12/30 07:10:31;;;;;;;125.75;27.85;;;11.50;99.90;;;;;;4774878;29;20042;-88
2021/12/30 07:12:57;;;;;;;88.22;24.65;;;11.50;99.90;;;;;;4744361;29;20051;-82
2021/12/30 07:15:23;;;;;;;110.47;25.05;;;11.50;99.90;;;;;;4777049;29;20051;-87
2021/12/30 07:17:48;;;;;;;79.63;22.48;;;11.60;99.90;;;;;;4761148;29;20049;-86
2021/12/30 07:20:14;;;;;;;102.57;24.15;;;11.60;99.90;;;;;;4763336;29;20035;-87
2021/12/30 07:22:41;;;;;;;84.93;22.15;;;11.60;99.90;;;;;;4759848;29;20163;-85
2021/12/30 07:25:09;;;;;;;76.32;19.52;;;11.60;99.90;;;;;;4776635;29;20043;-84
2021/12/30 07:27:35;;;;;;;68.78;19.10;;;11.60;99.90;;;;;;4763196;29;20091;-93
2021/12/30 07:30:02;;;;;;;78.78;20.15;;;11.60;99.90;;;;;;4759831;29;20632;-84
2021/12/30 07:32:28;;;;;;;67.65;19.58;;;11.70;99.90;;;;;;4781047;29;20039;-84
2021/12/30 07:34:54;;;;;;;62.97;17.50;;;11.70;99.90;;;;;;4775692;29;20478;-86
2021/12/30 07:37:20;;;;;;;55.85;15.90;;;11.60;99.90;;;;;;4759421;29;20057;-88
2021/12/30 07:39:48;;;;;;;47.60;13.15;;;11.70;99.90;;;;;;4764373;29;20049;-88
2021/12/30 07:42:15;;;;;;;42.08;13.20;;;11.70;99.90;;;;;;4761927;29;20133;-86
2021/12/30 07:44:40;;;;;;;40.17;13.52;;;11.70;99.90;;;;;;4777551;29;20053;-88
2021/12/30 07:47:07;;;;;;;39.15;12.85;;;11.70;99.90;;;;;;4772254;29;20039;-91
2021/12/30 07:49:36;;;;;;;36.58;11.95;;;11.70;99.90;;;;;;4754759;29;20050;-88
2021/12/30 07:52:06;;;;;;;35.78;13.07;;;11.70;99.90;;;;;;4769999;29;20501;-87
2021/12/30 07:54:33;;;;;;;28.63;10.73;;;11.70;99.90;;;;;;4773054;29;20047;-87
2021/12/30 07:56:59;;;;;;;28.73;10.77;;;11.70;99.90;;;;;;4755618;29;20046;-89
2021/12/30 07:59:25;;;;;;;27.83;9.45;;;11.70;99.90;;;;;;4772526;29;20129;-86
2021/12/30 08:01:51;;;;;;;34.50;10.45;;;11.70;99.90;;;;;;4774678;29;20050;-89
2021/12/30 08:04:16;;;;;;;33.67;10.23;;;11.70;99.90;;;;;;4749490;29;20277;-83
2021/12/30 08:06:42;;;;;;;29.10;9.63;;;11.70;99.90;;;;;;4742415;29;20598;-87
2021/12/30 08:09:08;;;;;;;21.75;8.40;;;11.70;99.90;;;;;;4774269;29;20089;-89
2021/12/30 08:11:34;;;;;;;28.50;9.52;;;11.80;99.90;;;;;;4761055;29;20590;-88
2021/12/30 08:14:00;;;;;;;27.60;8.75;;;11.70;99.90;;;;;;4777708;29;20051;-86
2021/12/30 08:16:27;;;;;;;20.05;8.25;;;11.80;99.90;;;;;;4760833;29;20136;-90
2021/12/30 08:18:53;;;;;;;20.20;8.48;;;11.80;99.90;;;;;;4764367;29;20494;-87
2021/12/30 08:21:22;;;;;;;16.30;8.07;;;11.80;99.90;;;;;;4775280;29;20500;-86
2021/12/30 08:23:51;;;;;;;19.70;8.80;;;11.80;99.90;;;;;;4775347;29;20146;-89
2021/12/30 08:26:18;;;;;;;20.23;8.30;;;11.80;99.90;;;;;;4763538;29;20499;-90
2021/12/30 08:28:45;;;;;;;21.02;9.18;;;11.80;99.90;;;;;;4778900;29;20139;-88
2021/12/30 08:31:11;;;;;;;21.10;8.93;;;11.80;99.90;;;;;;4781337;29;20694;-87
2021/12/30 08:33:37;;;;;;;22.65;9.20;;;11.90;99.90;;;;;;4777113;29;20541;-90
2021/12/30 08:36:03;;;;;;;14.85;7.57;;;11.90;99.90;;;;;;4777353;29;20054;-89
2021/12/30 08:38:29;;;;;;;17.13;8.30;;;11.90;99.90;;;;;;4767016;29;20065;-86
2021/12/30 08:40:55;;;;;;;17.60;7.63;;;11.90;99.90;;;;;;4792383;29;20047;-86
2021/12/30 08:43:21;;;;;;;18.95;8.25;;;11.90;99.90;;;;;;4790348;29;20515;-88
2021/12/30 08:45:48;;;;;;;21.45;8.00;;;11.90;99.90;;;;;;4756701;29;20142;-87
2021/12/30 08:48:15;;;;;;;15.90;7.60;;;11.90;99.90;;;;;;4779840;29;20594;-89
2021/12/30 08:50:42;;;;;;;17.35;7.65;;;12.00;99.90;;;;;;4762525;29;20046;-90
2021/12/30 08:53:09;;;;;;;23.30;8.77;;;11.90;99.90;;;;;;4780455;29;20047;-88
2021/12/30 08:55:36;;;;;;;19.60;8.23;;;12.00;99.90;;;;;;4759416;29;20121;-91
2021/12/30 08:58:02;;;;;;;20.58;8.35;;;12.00;99.90;;;;;;4758584;29;20043;-89
2021/12/30 09:00:33;;;;;;;18.55;8.60;;;12.00;99.90;;;;;;4788056;29;20039;-91
2021/12/30 09:03:04;;;;;;;21.50;9.23;;;12.00;99.90;;;;;;4794045;29;20051;-90
2021/12/30 09:05:31;;;;;;;17.50;9.73;;;12.10;99.90;;;;;;4762666;29;20085;-87
2021/12/30 09:08:04;;;;;;;25.08;11.18;;;12.10;99.90;;;;;;4771125;29;21567;-91
2021/12/30 09:10:40;;;;;;;;;;;12.10;99.90;;;;;;4792662;29;20046;-88
2021/12/30 09:13:08;;;;;;;27.27;11.20;;;12.10;99.90;;;;;;4777632;29;20342;-91
2021/12/30 09:15:35;;;;;;;30.60;12.30;;;12.10;99.90;;;;;;4762083;29;20074;-89
2021/12/30 09:18:02;;;;;;;28.17;12.55;;;12.20;99.90;;;;;;4778866;29;20038;-86
2021/12/30 09:20:28;;;;;;;28.35;12.05;;;12.20;99.90;;;;;;4758920;29;20098;-90
2021/12/30 09:22:56;;;;;;;39.45;12.55;;;12.20;99.90;;;;;;4729428;29;20049;-90
2021/12/30 09:25:24;;;;;;;32.58;11.90;;;12.20;99.90;;;;;;4773277;29;20115;-89
2021/12/30 09:27:51;;;;;;;29.58;11.75;;;12.20;99.90;;;;;;4791115;29;20082;-86
2021/12/30 09:30:18;;;;;;;26.23;11.02;;;12.20;99.90;;;;;;4785215;29;20144;-87
2021/12/30 09:32:48;;;;;;;29.30;11.23;;;12.20;99.90;;;;;;4793997;29;20066;-89
2021/12/30 09:35:16;;;;;;;31.25;12.43;;;12.30;99.90;;;;;;4804600;29;20050;-87
2021/12/30 09:37:42;;;;;;;26.67;11.15;;;12.30;99.90;;;;;;4794772;29;20137;-87
2021/12/30 09:40:13;;;;;;;30.25;11.68;;;12.30;99.90;;;;;;4789496;29;20046;-89
2021/12/30 09:42:46;;;;;;;22.52;11.35;;;12.30;99.90;;;;;;4794662;29;20065;-89
2021/12/30 09:45:12;;;;;;;28.50;11.60;;;12.30;99.90;;;;;;4778684;29;20038;-90
2021/12/30 09:47:54;;;;;;;35.13;12.85;;;12.30;99.90;;;;;;4802594;29;20411;-90
2021/12/30 09:50:29;;;;;;;33.88;13.80;;;12.30;99.90;;;;;;4794462;29;20061;-88
2021/12/30 09:53:00;;;;;;;31.05;13.48;;;12.30;99.90;;;;;;4796004;29;20046;-89
2021/12/30 09:55:25;;;;;;;29.42;14.18;;;12.40;99.90;;;;;;4789750;29;20048;-88
2021/12/30 09:57:53;;;;;;;36.95;15.32;;;12.40;99.90;;;;;;4775056;29;20070;-87
2021/12/30 10:00:20;;;;;;;32.00;15.05;;;12.30;99.90;;;;;;4789255;29;20061;-88
2021/12/30 10:02:46;;;;;;;29.85;13.93;;;12.40;99.90;;;;;;4759138;29;20088;-87
2021/12/30 10:05:18;;;;;;;39.75;14.55;;;12.30;99.90;;;;;;4786878;29;20490;-88
2021/12/30 10:07:45;;;;;;;28.33;14.30;;;12.40;99.90;;;;;;4809493;29;20033;-88
2021/12/30 10:10:31;;;;;;;33.38;14.48;;;12.30;99.90;;;;;;4805644;29;20124;-88
2021/12/30 10:12:59;;;;;;;27.10;12.70;;;12.40;99.90;;;;;;4833716;29;20124;-91
2021/12/30 10:15:39;;;;;;;29.00;11.75;;;12.40;99.90;;;;;;4825558;29;20045;-88
2021/12/30 10:18:05;;;;;;;29.67;13.32;;;12.40;99.90;;;;;;4838160;29;20037;-88
2021/12/30 10:20:34;;;;;;;30.10;11.85;;;12.40;99.90;;;;;;4814903;29;20163;-90
2021/12/30 10:23:12;;;;;;;18.48;10.85;;;12.30;99.90;;;;;;4817043;29;20037;-88
2021/12/30 10:25:44;;;;;;;22.75;11.45;;;12.30;99.90;;;;;;4831039;29;20449;-88
2021/12/30 10:28:36;;;;;;;27.35;11.90;;;12.40;99.90;;;;;;4828477;29;20042;-89
2021/12/30 10:31:10;;;;;;;21.15;11.40;;;12.30;99.90;;;;;;4842166;29;20068;-88
2021/12/30 10:33:55;;;;;;;26.45;11.70;;;12.40;99.90;;;;;;4830142;29;20508;-87
2021/12/30 10:36:29;;;;;;;21.45;10.95;;;12.30;99.90;;;;;;4816814;29;20036;-88
2021/12/30 10:39:17;;;;;;;28.23;11.82;;;12.40;99.90;;;;;;4824778;29;20041;-87
2021/12/30 10:41:56;;;;;;;23.08;10.65;;;12.40;99.90;;;;;;4842680;29;20097;-87
2021/12/30 10:45:12;;;;;;;32.88;11.45;;;12.30;99.90;;;;;;4831019;29;20497;-90
2021/12/30 10:48:20;;;;;;;29.65;10.35;;;12.30;99.90;;;;;;4745328;30;20055;-88
2021/12/30 10:51:22;;;;;;;36.75;11.38;;;12.30;99.90;;;;;;4738604;30;20485;-90
2021/12/30 10:57:12;;;;;;;32.08;9.95;;;12.40;99.90;;;;;;4817364;29;20053;-87
2021/12/30 10:59:55;;;;;;;32.28;10.60;;;12.30;99.90;;;;;;4818423;29;20050;-88
2021/12/30 11:15:34;;;;;;;34.92;9.93;;;12.30;99.90;;;;;;4871219;29;20083;-87
2021/12/30 11:18:56;;;;;;;38.72;9.70;;;12.30;99.90;;;;;;4844717;29;20577;-91
2021/12/30 11:21:58;;;;;;;31.80;9.18;;;12.30;99.90;;;;;;4822640;29;20131;-88
2021/12/30 11:31:23;;;;;;;43.05;10.07;;;12.30;99.90;;;;;;4827483;29;20630;-88
2021/12/30 11:34:29;;;;;;;28.63;8.13;;;12.30;99.90;;;;;;4841118;23;20140;-89
2021/12/30 11:41:37;;;;;;;44.80;9.02;;;12.30;99.90;;;;;;4790040;29;20638;-89
2021/12/30 11:50:20;;;;;;;42.05;9.18;;;12.30;99.90;;;;;;4844675;29;20046;-92
2021/12/30 11:53:43;;;;;;;44.53;7.85;;;12.30;99.90;;;;;;4772216;29;20467;-89
2021/12/30 11:56:48;;;;;;;34.65;7.90;;;12.30;99.90;;;;;;4741389;30;20047;-88
2021/12/30 11:59:40;;;;;;;;;;;;;;;;;;;;;
2021/12/30 12:02:56;;;;;;;;;;;;;;;;;;;;;
2021/12/30 12:06:04;;;;;;;43.47;7.28;;;12.30;99.90;;;;;;4837168;29;20057;-89
2021/12/30 12:09:14;;;;;;;35.53;7.03;;;12.30;99.90;;;;;;4767896;29;20137;-87
2021/12/30 12:11:52;;;;;;;37.67;7.18;;;12.30;99.90;;;;;;4767000;29;20432;-85
2021/12/30 12:14:39;;;;;;;36.92;7.53;;;12.40;99.90;;;;;;4795420;29;20050;-88
2021/12/30 12:17:30;;;;;;;41.78;7.72;;;12.40;99.90;;;;;;4771984;29;20073;-90
2021/12/30 12:20:28;;;;;;;36.15;8.00;;;12.40;99.90;;;;;;4815374;29;20478;-88
2021/12/30 12:23:35;;;;;;;46.97;7.25;;;12.30;99.90;;;;;;4819476;29;20109;-89
2021/12/30 12:26:14;;;;;;;37.20;7.13;;;12.40;99.90;;;;;;4804504;29;20127;-90
2021/12/30 12:28:41;;;;;;;34.15;6.47;;;12.40;99.90;;;;;;4825099;29;20498;-87
2021/12/30 12:31:15;;;;;;;37.55;6.68;;;12.40;99.90;;;;;;4811522;29;20539;-86
2021/12/30 12:33:44;;;;;;;45.97;7.97;;;12.40;99.90;;;;;;4783674;29;20090;-87
2021/12/30 12:36:38;;;;;;;39.00;6.93;;;12.40;99.90;;;;;;4816945;29;20388;-89
2021/12/30 12:39:33;;;;;;;36.92;7.72;;;12.40;99.90;;;;;;4799396;29;20045;-88
2021/12/30 12:42:13;;;;;;;;;;;;;;;;;;;;;
2021/12/30 12:44:39;;;;;;;43.15;7.43;;;12.40;99.90;;;;;;4828367;29;20053;-89
2021/12/30 12:47:33;;;;;;;36.03;7.45;;;12.40;99.90;;;;;;4815177;29;20046;-88
2021/12/30 12:50:10;;;;;;;35.88;6.63;;;12.40;99.90;;;;;;4823852;29;20383;-85
2021/12/30 12:52:51;;;;;;;42.83;7.57;;;12.40;99.90;;;;;;4813922;29;20606;-89
2021/12/30 12:58:19;;;;;;;36.83;7.25;;;12.40;99.90;;;;;;4808533;29;20193;-86
2021/12/30 13:00:47;;;;;;;39.95;7.28;;;12.40;99.90;;;;;;4814911;29;20409;-89
2021/12/30 13:03:24;;;;;;;44.88;7.72;;;12.40;99.90;;;;;;4811554;29;20408;-86
2021/12/30 13:06:20;;;;;;;42.65;8.13;;;12.40;99.90;;;;;;4797064;29;20073;-87
2021/12/30 13:08:59;;;;;;;;;;;;;;;;;;;;;
2021/12/30 13:11:36;;;;;;;36.13;6.88;;;12.40;99.90;;;;;;4810966;29;20610;-87
2021/12/30 13:14:23;;;;;;;37.53;7.00;;;12.40;99.90;;;;;;4800307;29;20507;-88
2021/12/30 13:16:54;;;;;;;47.03;7.15;;;12.40;99.90;;;;;;4811234;29;20429;-88
2021/12/30 13:19:25;;;;;;;40.70;7.75;;;12.40;99.90;;;;;;4813953;29;20074;-87
2021/12/30 13:22:20;;;;;;;36.25;7.15;;;12.40;99.90;;;;;;4811239;29;20530;-89
2021/12/30 13:25:05;;;;;;;;;;;;;;;;;;;;;
2021/12/30 13:27:42;;;;;;;35.38;6.97;;;12.40;99.90;;;;;;4825723;29;20050;-87
2021/12/30 13:30:12;;;;;;;43.92;7.00;;;12.40;99.90;;;;;;4799459;29;20042;-86
2021/12/30 13:33:04;;;;;;;42.60;7.00;;;12.40;99.90;;;;;;4805317;29;20158;-87
2021/12/30 13:35:33;;;;;;;32.80;7.25;;;12.50;99.90;;;;;;4801887;29;20046;-89
2021/12/30 13:38:20;;;;;;;;;;;;;;;;;;;;;